Time,TemperatureF,DewpointF,PressureIn,WindDirection,WindDirectionDegrees,WindSpeedMPH,WindSpeedGustMPH,Humidity,HourlyPrecipIn,Conditions,Clouds,dailyrainin,SoftwareType,DateUTC
2013-08-22 00:00:00,70.8,68.4,30.03,North,9,0.0,0.0,92,0.00,,,0.00,Wunderground v.1.15,2013-08-22 05:00:00,
2013-08-22 00:06:00,70.6,68.2,30.03,North,9,0.0,0.0,92,0.00,,,0.00,Wunderground v.1.15,2013-08-22 05:06:00,
2013-08-22 00:12:00,70.6,68.2,30.03,North,9,0.0,0.0,92,0.00,,,0.00,Wunderground v.1.15,2013-08-22 05:12:00,
2013-08-22 00:18:00,70.6,68.2,30.03,North,9,0.0,0.0,92,0.00,,,0.00,Wunderground v.1.15,2013-08-22 05:18:00,
2013-08-22 00:24:00,70.8,68.4,30.02,North,9,0.0,0.0,92,0.00,,,0.00,Wunderground v.1.15,2013-08-22 05:24:00,
2013-08-22 00:29:00,70.8,68.4,30.02,North,9,0.0,0.0,92,0.00,,,0.00,Wunderground v.1.15,2013-08-22 05:29:00,
2013-08-22 00:35:00,70.8,68.4,30.02,North,9,0.0,0.0,92,0.00,,,0.00,Wunderground v.1.15,2013-08-22 05:35:00,
2013-08-22 00:41:00,70.6,68.2,30.02,North,9,0.0,0.0,92,0.00,,,0.00,Wunderground v.1.15,2013-08-22 05:41:00,
2013-08-22 00:46:00,70.6,68.2,30.02,North,9,0.0,0.0,92,0.00,,,0.00,Wunderground v.1.15,2013-08-22 05:46:00,
2013-08-22 00:52:00,70.6,68.2,30.02,North,9,0.0,0.0,92,0.00,,,0.00,Wunderground v.1.15,2013-08-22 05:52:00,
2013-08-22 00:58:00,70.4,68.0,30.02,North,9,0.0,0.0,92,0.00,,,0.00,Wunderground v.1.15,2013-08-22 05:58:00,
2013-08-22 01:04:00,70.3,67.9,30.03,North,9,0.0,0.0,92,0.00,,,0.00,Wunderground v.1.15,2013-08-22 06:04:00,
2013-08-22 01:09:00,70.3,67.9,30.03,North,9,0.0,0.0,92,0.00,,,0.00,Wunderground v.1.15,2013-08-22 06:09:00,
2013-08-22 01:15:00,70.3,67.9,30.03,North,9,0.0,0.0,92,0.00,,,0.00,Wunderground v.1.15,2013-08-22 06:15:00,
2013-08-22 01:21:00,70.3,67.5,30.03,North,9,0.0,0.0,91,0.00,,,0.00,Wunderground v.1.15,2013-08-22 06:21:00,
2013-08-22 01:27:00,69.9,67.2,30.03,North,9,0.0,0.0,91,0.00,,,0.00,Wunderground v.1.15,2013-08-22 06:27:00,
2013-08-22 01:33:00,69.8,67.1,30.03,North,9,0.0,0.0,91,0.00,,,0.00,Wunderground v.1.15,2013-08-22 06:33:00,
2013-08-22 01:39:00,69.6,66.9,30.03,North,9,0.0,0.0,91,0.00,,,0.00,Wunderground v.1.15,2013-08-22 06:39:00,
2013-08-22 01:45:00,69.3,66.6,30.03,North,9,0.0,0.0,91,0.00,,,0.00,Wunderground v.1.15,2013-08-22 06:45:00,
2013-08-22 01:51:00,68.9,66.2,30.03,North,9,0.0,0.0,91,0.00,,,0.00,Wunderground v.1.15,2013-08-22 06:51:00,
2013-08-22 01:57:00,68.6,65.9,30.03,North,9,0.0,0.0,91,0.00,,,0.00,Wunderground v.1.15,2013-08-22 06:57:00,
2013-08-22 02:02:00,68.4,65.7,30.03,North,9,0.0,0.0,91,0.00,,,0.00,Wunderground v.1.15,2013-08-22 07:02:00,
2013-08-22 02:07:00,68.3,65.9,30.03,North,9,0.0,0.0,92,0.00,,,0.00,Wunderground v.1.15,2013-08-22 07:07:00,
2013-08-22 02:12:00,68.3,65.9,30.03,North,9,0.0,0.0,92,0.00,,,0.00,Wunderground v.1.15,2013-08-22 07:12:00,
2013-08-22 02:17:00,68.1,65.7,30.03,North,9,0.0,0.0,92,0.00,,,0.00,Wunderground v.1.15,2013-08-22 07:17:00,
2013-08-22 02:22:00,68.1,65.7,30.03,North,9,0.0,0.0,92,0.00,,,0.00,Wunderground v.1.15,2013-08-22 07:22:00,
2013-08-22 02:27:00,68.1,65.7,30.03,North,9,0.0,0.0,92,0.00,,,0.00,Wunderground v.1.15,2013-08-22 07:27:00,
2013-08-22 02:32:00,67.9,65.5,30.03,North,9,0.0,0.0,92,0.00,,,0.00,Wunderground v.1.15,2013-08-22 07:32:00,
2013-08-22 02:37:00,67.8,65.4,30.03,North,9,0.0,0.0,92,0.00,,,0.00,Wunderground v.1.15,2013-08-22 07:37:00,
2013-08-22 02:42:00,67.8,65.7,30.03,North,9,0.0,0.0,93,0.00,,,0.00,Wunderground v.1.15,2013-08-22 07:42:00,
2013-08-22 02:47:00,67.8,65.7,30.03,North,9,0.0,0.0,93,0.00,,,0.00,Wunderground v.1.15,2013-08-22 07:47:00,
2013-08-22 02:53:00,67.6,65.5,30.04,North,9,0.0,0.0,93,0.00,,,0.00,Wunderground v.1.15,2013-08-22 07:53:00,
2013-08-22 02:58:00,67.6,65.5,30.04,North,9,0.0,0.0,93,0.00,,,0.00,Wunderground v.1.15,2013-08-22 07:58:00,
2013-08-22 03:03:00,67.4,65.3,30.04,North,9,0.0,0.0,93,0.00,,,0.00,Wunderground v.1.15,2013-08-22 08:03:00,
2013-08-22 03:09:00,67.3,65.2,30.03,North,9,0.0,0.0,93,0.00,,,0.00,Wunderground v.1.15,2013-08-22 08:09:00,
2013-08-22 03:14:00,67.3,65.2,30.03,North,9,0.0,0.0,93,0.00,,,0.00,Wunderground v.1.15,2013-08-22 08:14:00,
2013-08-22 03:19:00,67.1,65.0,30.03,North,9,0.0,0.0,93,0.00,,,0.00,Wunderground v.1.15,2013-08-22 08:19:00,
2013-08-22 03:24:00,67.1,65.0,30.03,North,9,0.0,0.0,93,0.00,,,0.00,Wunderground v.1.15,2013-08-22 08:24:00,
2013-08-22 03:29:00,66.9,64.8,30.03,North,9,0.0,0.0,93,0.00,,,0.00,Wunderground v.1.15,2013-08-22 08:29:00,
2013-08-22 03:34:00,66.6,64.5,30.04,North,9,0.0,0.0,93,0.00,,,0.00,Wunderground v.1.15,2013-08-22 08:34:00,
2013-08-22 03:39:00,66.4,64.3,30.04,North,9,0.0,0.0,93,0.00,,,0.00,Wunderground v.1.15,2013-08-22 08:39:00,
2013-08-22 03:44:00,66.4,64.3,30.04,North,9,0.0,0.0,93,0.00,,,0.00,Wunderground v.1.15,2013-08-22 08:44:00,
2013-08-22 03:49:00,66.3,64.2,30.04,North,9,0.0,0.0,93,0.00,,,0.00,Wunderground v.1.15,2013-08-22 08:49:00,
2013-08-22 03:54:00,66.3,64.5,30.04,North,9,0.0,0.0,94,0.00,,,0.00,Wunderground v.1.15,2013-08-22 08:54:00,
2013-08-22 03:59:00,66.1,64.3,30.04,North,9,0.0,0.0,94,0.00,,,0.00,Wunderground v.1.15,2013-08-22 08:59:00,
2013-08-22 04:04:00,66.0,64.2,30.04,North,9,0.0,0.0,94,0.00,,,0.00,Wunderground v.1.15,2013-08-22 09:04:00,
2013-08-22 04:09:00,65.8,64.0,30.04,North,9,0.0,0.0,94,0.00,,,0.00,Wunderground v.1.15,2013-08-22 09:09:00,
2013-08-22 04:14:00,65.8,64.0,30.04,North,9,0.0,0.0,94,0.00,,,0.00,Wunderground v.1.15,2013-08-22 09:14:00,
2013-08-22 04:19:00,65.6,63.8,30.03,North,9,0.0,0.0,94,0.00,,,0.00,Wunderground v.1.15,2013-08-22 09:19:00,
2013-08-22 04:24:00,65.8,64.0,30.03,North,9,0.0,0.0,94,0.00,,,0.00,Wunderground v.1.15,2013-08-22 09:24:00,
2013-08-22 04:29:00,65.6,63.8,30.03,North,9,0.0,0.0,94,0.00,,,0.00,Wunderground v.1.15,2013-08-22 09:29:00,
2013-08-22 04:34:00,65.6,63.8,30.03,North,9,0.0,0.0,94,0.00,,,0.00,Wunderground v.1.15,2013-08-22 09:34:00,
2013-08-22 04:39:00,65.3,63.5,30.03,North,9,0.0,0.0,94,0.00,,,0.00,Wunderground v.1.15,2013-08-22 09:39:00,
2013-08-22 04:44:00,65.3,63.5,30.03,North,9,0.0,0.0,94,0.00,,,0.00,Wunderground v.1.15,2013-08-22 09:44:00,
2013-08-22 04:49:00,65.2,63.4,30.03,North,9,0.0,0.0,94,0.00,,,0.00,Wunderground v.1.15,2013-08-22 09:49:00,
2013-08-22 04:54:00,65.2,63.4,30.03,North,9,0.0,0.0,94,0.00,,,0.00,Wunderground v.1.15,2013-08-22 09:54:00,
2013-08-22 04:59:00,65.0,63.2,30.03,North,9,0.0,0.0,94,0.00,,,0.00,Wunderground v.1.15,2013-08-22 09:59:00,
2013-08-22 05:04:00,65.0,63.2,30.03,North,9,0.0,0.0,94,0.00,,,0.00,Wunderground v.1.15,2013-08-22 10:04:00,
2013-08-22 05:09:00,65.0,63.5,30.03,North,9,0.0,0.0,95,0.00,,,0.00,Wunderground v.1.15,2013-08-22 10:09:00,
2013-08-22 05:14:00,65.2,63.7,30.03,North,9,0.0,0.0,95,0.00,,,0.00,Wunderground v.1.15,2013-08-22 10:14:00,
2013-08-22 05:19:00,65.2,63.7,30.03,North,9,0.0,0.0,95,0.00,,,0.00,Wunderground v.1.15,2013-08-22 10:19:00,
2013-08-22 05:24:00,65.2,63.7,30.03,North,9,0.0,0.0,95,0.00,,,0.00,Wunderground v.1.15,2013-08-22 10:24:00,
2013-08-22 05:29:00,65.2,63.7,30.03,North,9,0.0,0.0,95,0.00,,,0.00,Wunderground v.1.15,2013-08-22 10:29:00,
2013-08-22 05:34:00,65.2,63.7,30.03,North,9,0.0,0.0,95,0.00,,,0.00,Wunderground v.1.15,2013-08-22 10:34:00,
2013-08-22 05:40:00,65.2,63.7,30.03,North,9,0.0,0.0,95,0.00,,,0.00,Wunderground v.1.15,2013-08-22 10:40:00,
2013-08-22 05:45:00,65.6,64.1,30.03,North,9,0.0,0.0,95,0.00,,,0.00,Wunderground v.1.15,2013-08-22 10:45:00,
2013-08-22 07:02:00,68.6,67.7,30.09,North,9,0.0,0.0,97,0.00,,,0.00,Wunderground v.1.15,2013-08-22 12:02:00,
2013-08-22 07:03:00,68.6,67.7,30.09,North,9,0.0,0.0,97,0.00,,,0.00,Wunderground v.1.15,2013-08-22 12:03:00,
2013-08-22 07:04:00,68.6,67.7,30.09,North,9,0.0,0.0,97,0.00,,,0.00,Wunderground v.1.15,2013-08-22 12:04:00,
2013-08-22 07:05:00,68.8,67.9,30.09,North,9,0.0,0.0,97,0.00,,,0.00,Wunderground v.1.15,2013-08-22 12:05:00,
2013-08-22 07:06:00,68.8,67.9,30.08,North,9,0.0,0.0,97,0.00,,,0.00,Wunderground v.1.15,2013-08-22 12:06:00,
2013-08-22 07:07:00,68.9,68.0,30.08,North,9,0.0,0.0,97,0.00,,,0.00,Wunderground v.1.15,2013-08-22 12:07:00,
2013-08-22 07:08:00,69.1,68.2,30.08,North,9,0.0,0.0,97,0.00,,,0.00,Wunderground v.1.15,2013-08-22 12:08:00,
2013-08-22 07:10:00,69.3,68.4,30.08,North,9,0.0,0.0,97,0.00,,,0.00,Wunderground v.1.15,2013-08-22 12:10:00,
2013-08-22 07:11:00,69.4,68.5,30.08,North,9,0.0,0.0,97,0.00,,,0.00,Wunderground v.1.15,2013-08-22 12:11:00,
2013-08-22 07:12:00,69.4,68.5,30.08,North,9,0.0,0.0,97,0.00,,,0.00,Wunderground v.1.15,2013-08-22 12:12:00,
2013-08-22 07:13:00,69.6,68.7,30.08,North,9,0.0,0.0,97,0.00,,,0.00,Wunderground v.1.15,2013-08-22 12:13:00,
2013-08-22 07:27:00,65.2,64.0,30.07,North,9,0.0,0.0,96,0.00,,,0.00,Wunderground v.1.15,2013-08-22 12:27:00,
2013-08-22 07:32:00,65.3,64.1,30.07,North,9,0.0,0.0,96,0.00,,,0.00,Wunderground v.1.15,2013-08-22 12:32:00,
2013-08-22 07:37:00,65.8,64.6,30.09,North,9,0.0,0.0,96,0.00,,,0.00,Wunderground v.1.15,2013-08-22 12:37:00,
2013-08-22 07:42:00,66.3,65.1,30.09,North,9,0.0,0.0,96,0.00,,,0.00,Wunderground v.1.15,2013-08-22 12:42:00,
2013-08-22 07:48:00,67.1,66.2,30.09,North,9,0.0,0.0,97,0.00,,,0.00,Wunderground v.1.15,2013-08-22 12:48:00,
2013-08-22 07:53:00,67.8,66.9,30.09,North,9,0.0,0.0,97,0.00,,,0.00,Wunderground v.1.15,2013-08-22 12:53:00,
2013-08-22 07:58:00,68.3,67.4,30.09,North,9,0.0,0.0,97,0.00,,,0.00,Wunderground v.1.15,2013-08-22 12:58:00,
2013-08-22 08:03:00,68.8,67.9,30.09,North,9,0.0,0.0,97,0.00,,,0.00,Wunderground v.1.15,2013-08-22 13:03:00,
2013-08-22 08:08:00,69.3,68.4,30.08,North,9,0.0,0.0,97,0.00,,,0.00,Wunderground v.1.15,2013-08-22 13:08:00,
2013-08-22 08:13:00,69.6,68.7,30.08,North,9,0.0,0.0,97,0.00,,,0.00,Wunderground v.1.15,2013-08-22 13:13:00,
2013-08-22 08:18:00,70.1,69.2,30.08,North,9,0.0,0.0,97,0.00,,,0.00,Wunderground v.1.15,2013-08-22 13:18:00,
2013-08-22 08:23:00,70.6,69.7,30.09,North,9,0.0,0.0,97,0.00,,,0.00,Wunderground v.1.15,2013-08-22 13:23:00,
2013-08-22 08:28:00,70.6,69.4,30.09,North,9,0.0,0.0,96,0.00,,,0.00,Wunderground v.1.15,2013-08-22 13:28:00,
2013-08-22 08:34:00,70.8,69.6,30.09,North,9,0.0,0.0,96,0.00,,,0.00,Wunderground v.1.15,2013-08-22 13:34:00,
2013-08-22 08:39:00,71.1,69.9,30.09,North,9,0.0,0.0,96,0.00,,,0.00,Wunderground v.1.15,2013-08-22 13:39:00,
2013-08-22 08:44:00,71.5,70.3,30.09,NNE,14,0.0,1.0,96,0.00,,,0.00,Wunderground v.1.15,2013-08-22 13:44:00,
2013-08-22 08:49:00,71.5,70.3,30.09,NNE,14,0.0,0.0,96,0.00,,,0.00,Wunderground v.1.15,2013-08-22 13:49:00,
2013-08-22 08:54:00,71.6,70.1,30.09,NNE,15,0.0,1.0,95,0.00,,,0.00,Wunderground v.1.15,2013-08-22 13:54:00,
2013-08-22 08:59:00,72.0,70.5,30.09,NNE,15,0.0,0.0,95,0.00,,,0.00,Wunderground v.1.15,2013-08-22 13:59:00,
2013-08-22 09:04:00,72.3,70.5,30.09,NNE,15,0.0,0.0,94,0.00,,,0.00,Wunderground v.1.15,2013-08-22 14:04:00,
2013-08-22 09:09:00,72.7,70.2,30.09,NNE,15,0.0,0.0,92,0.00,,,0.00,Wunderground v.1.15,2013-08-22 14:09:00,
2013-08-22 09:14:00,73.3,70.2,30.09,NNE,15,0.0,0.0,90,0.00,,,0.00,Wunderground v.1.15,2013-08-22 14:14:00,
2013-08-22 09:19:00,73.7,70.3,30.08,South,181,0.0,0.0,89,0.00,,,0.00,Wunderground v.1.15,2013-08-22 14:19:00,
2013-08-22 09:24:00,74.2,69.7,30.08,South,181,0.0,0.0,86,0.00,,,0.00,Wunderground v.1.15,2013-08-22 14:24:00,
2013-08-22 09:29:00,74.9,69.4,30.08,South,181,0.0,0.0,83,0.00,,,0.00,Wunderground v.1.15,2013-08-22 14:29:00,
2013-08-22 09:34:00,75.4,69.2,30.08,South,181,0.0,1.0,81,0.00,,,0.00,Wunderground v.1.15,2013-08-22 14:34:00,
2013-08-22 09:39:00,76.3,69.3,30.08,SSE,164,2.0,3.0,79,0.00,,,0.00,Wunderground v.1.15,2013-08-22 14:39:00,
2013-08-22 09:44:00,76.8,69.0,30.08,South,172,1.0,3.0,77,0.00,,,0.00,Wunderground v.1.15,2013-08-22 14:44:00,
2013-08-22 09:49:00,77.4,69.6,30.07,South,182,1.0,1.0,77,0.00,,,0.00,Wunderground v.1.15,2013-08-22 14:49:00,
2013-08-22 09:54:00,77.9,69.3,30.07,South,183,0.0,1.0,75,0.00,,,0.00,Wunderground v.1.15,2013-08-22 14:54:00,
2013-08-22 09:59:00,78.5,69.1,30.07,SSE,157,0.0,3.0,73,0.00,,,0.00,Wunderground v.1.15,2013-08-22 14:59:00,
2013-08-22 10:04:00,79.0,69.2,30.07,SE,143,0.0,3.0,72,0.00,,,0.00,Wunderground v.1.15,2013-08-22 15:04:00,
2013-08-22 10:09:00,79.6,69.4,30.07,SE,146,0.0,1.0,71,0.00,,,0.00,Wunderground v.1.15,2013-08-22 15:09:00,
2013-08-22 10:14:00,80.3,70.0,30.07,South,184,0.0,3.0,71,0.00,,,0.00,Wunderground v.1.15,2013-08-22 15:14:00,
2013-08-22 10:19:00,80.9,69.3,30.06,South,177,6.0,6.0,68,0.00,,,0.00,Wunderground v.1.15,2013-08-22 15:19:00,
2013-08-22 10:24:00,81.1,68.7,30.06,South,184,4.0,6.0,66,0.00,,,0.00,Wunderground v.1.15,2013-08-22 15:24:00,
2013-08-22 10:29:00,81.4,69.4,30.06,South,186,2.0,2.0,67,0.00,,,0.00,Wunderground v.1.15,2013-08-22 15:29:00,
2013-08-22 10:34:00,82.2,69.3,30.06,SSE,166,0.0,3.0,65,0.00,,,0.00,Wunderground v.1.15,2013-08-22 15:34:00,
2013-08-22 10:39:00,82.6,68.3,30.06,WSW,237,0.0,6.0,62,0.00,,,0.00,Wunderground v.1.15,2013-08-22 15:39:00,
2013-08-22 10:44:00,83.2,68.8,30.06,SSW,198,0.0,6.0,62,0.00,,,0.00,Wunderground v.1.15,2013-08-22 15:44:00,
2013-08-22 10:49:00,83.6,69.7,30.06,SSW,198,0.0,1.0,63,0.00,,,0.00,Wunderground v.1.15,2013-08-22 15:49:00,
2013-08-22 10:54:00,84.0,68.6,30.06,SSW,213,0.0,2.0,60,0.00,,,0.00,Wunderground v.1.15,2013-08-22 15:54:00,
2013-08-22 10:59:00,84.3,69.4,30.06,SSW,213,0.0,0.0,61,0.00,,,0.00,Wunderground v.1.15,2013-08-22 15:59:00,
2013-08-22 11:04:00,84.3,67.9,30.07,SSW,213,0.0,1.0,58,0.00,,,0.00,Wunderground v.1.15,2013-08-22 16:04:00,
2013-08-22 11:09:00,84.1,68.2,30.07,SSW,213,0.0,0.0,59,0.00,,,0.00,Wunderground v.1.15,2013-08-22 16:09:00,
2013-08-22 11:14:00,83.8,66.9,30.07,SSW,212,0.0,1.0,57,0.00,,,0.00,Wunderground v.1.15,2013-08-22 16:14:00,
2013-08-22 11:19:00,84.0,66.6,30.07,South,187,0.0,4.0,56,0.00,,,0.00,Wunderground v.1.15,2013-08-22 16:19:00,
2013-08-22 11:24:00,84.5,67.1,30.07,South,184,0.0,4.0,56,0.00,,,0.00,Wunderground v.1.15,2013-08-22 16:24:00,
2013-08-22 11:29:00,85.1,68.7,30.07,South,188,0.0,2.0,58,0.00,,,0.00,Wunderground v.1.15,2013-08-22 16:29:00,
2013-08-22 11:35:00,85.5,69.0,30.06,South,171,1.0,3.0,58,0.00,,,0.00,Wunderground v.1.15,2013-08-22 16:35:00,
2013-08-22 11:40:00,85.3,66.8,30.06,SSW,201,0.0,1.0,54,0.00,,,0.00,Wunderground v.1.15,2013-08-22 16:40:00,
2013-08-22 11:45:00,85.5,66.4,30.06,South,181,0.0,1.0,53,0.00,,,0.00,Wunderground v.1.15,2013-08-22 16:45:00,
2013-08-22 11:50:00,85.3,67.3,30.06,South,182,0.0,0.0,55,0.00,,,0.00,Wunderground v.1.15,2013-08-22 16:50:00,
2013-08-22 11:56:00,85.9,68.9,30.06,South,188,0.0,1.0,57,0.00,,,0.00,Wunderground v.1.15,2013-08-22 16:56:00,
2013-08-22 12:01:00,85.7,66.6,30.06,SW,218,0.0,2.0,53,0.00,,,0.00,Wunderground v.1.15,2013-08-22 17:01:00,
2013-08-22 12:06:00,85.7,66.6,30.06,SSW,198,5.0,5.0,53,0.00,,,0.00,Wunderground v.1.15,2013-08-22 17:06:00,
2013-08-22 12:11:00,85.7,67.7,30.06,SSW,198,0.0,1.0,55,0.00,,,0.00,Wunderground v.1.15,2013-08-22 17:11:00,
2013-08-22 12:16:00,85.9,68.9,30.06,SSW,198,0.0,1.0,57,0.00,,,0.00,Wunderground v.1.15,2013-08-22 17:16:00,
2013-08-22 12:21:00,86.5,68.4,30.05,NNE,22,0.0,2.0,55,0.00,,,0.00,Wunderground v.1.15,2013-08-22 17:21:00,
2013-08-22 12:26:00,86.7,67.5,30.05,NNE,22,0.0,2.0,53,0.00,,,0.00,Wunderground v.1.15,2013-08-22 17:26:00,
2013-08-22 12:31:00,87.0,67.8,30.05,NNE,22,0.0,1.0,53,0.00,,,0.00,Wunderground v.1.15,2013-08-22 17:31:00,
2013-08-22 12:36:00,87.4,69.3,30.04,NNE,22,0.0,1.0,55,0.00,,,0.00,Wunderground v.1.15,2013-08-22 17:36:00,
2013-08-22 12:41:00,87.4,69.3,30.04,NNE,22,0.0,1.0,55,0.00,,,0.00,Wunderground v.1.15,2013-08-22 17:41:00,
2013-08-22 12:46:00,87.2,70.1,30.04,SSE,163,0.0,2.0,57,0.00,,,0.00,Wunderground v.1.15,2013-08-22 17:46:00,
2013-08-22 12:51:00,87.0,66.1,30.04,South,172,0.0,2.0,50,0.00,,,0.00,Wunderground v.1.15,2013-08-22 17:51:00,
2013-08-22 12:56:00,87.0,66.1,30.04,South,172,0.0,3.0,50,0.00,,,0.00,Wunderground v.1.15,2013-08-22 17:56:00,
2013-08-22 13:02:00,87.2,66.9,30.04,South,172,0.0,1.0,51,0.00,,,0.00,Wunderground v.1.15,2013-08-22 18:02:00,
2013-08-22 13:07:00,87.6,68.4,30.04,South,173,0.0,1.0,53,0.00,,,0.00,Wunderground v.1.15,2013-08-22 18:07:00,
2013-08-22 13:12:00,88.0,68.7,30.04,North,355,0.0,2.0,53,0.00,,,0.00,Wunderground v.1.15,2013-08-22 18:12:00,
2013-08-22 13:17:00,88.2,68.4,30.04,North,355,0.0,2.0,52,0.00,,,0.00,Wunderground v.1.15,2013-08-22 18:17:00,
2013-08-22 13:22:00,88.2,66.0,30.03,North,355,0.0,0.0,48,0.00,,,0.00,Wunderground v.1.15,2013-08-22 18:22:00,
2013-08-22 13:27:00,88.2,66.6,30.03,NW,309,0.0,0.0,49,0.00,,,0.00,Wunderground v.1.15,2013-08-22 18:27:00,
2013-08-22 13:32:00,88.2,67.8,30.03,NW,309,0.0,2.0,51,0.00,,,0.00,Wunderground v.1.15,2013-08-22 18:32:00,
2013-08-22 13:37:00,87.8,68.0,30.03,WSW,255,0.0,2.0,52,0.00,,,0.00,Wunderground v.1.15,2013-08-22 18:37:00,
2013-08-22 13:42:00,87.6,68.4,30.03,WSW,254,0.0,2.0,53,0.00,,,0.00,Wunderground v.1.15,2013-08-22 18:42:00,
2013-08-22 13:48:00,88.0,68.2,30.03,WSW,254,0.0,0.0,52,0.00,,,0.00,Wunderground v.1.15,2013-08-22 18:48:00,
2013-08-22 13:53:00,88.8,67.8,30.02,West,280,0.0,3.0,50,0.00,,,0.00,Wunderground v.1.15,2013-08-22 18:53:00,
2013-08-22 13:58:00,89.0,66.8,30.02,NNW,345,0.0,0.0,48,0.00,,,0.00,Wunderground v.1.15,2013-08-22 18:58:00,
2013-08-22 14:03:00,89.5,67.2,30.02,NW,317,0.0,1.0,48,0.00,,,0.00,Wunderground v.1.15,2013-08-22 19:03:00,
2013-08-22 14:09:00,89.7,70.8,30.02,NW,317,0.0,0.0,54,0.00,,,0.00,Wunderground v.1.15,2013-08-22 19:09:00,
2013-08-22 14:14:00,89.5,65.4,30.02,SSW,210,0.0,3.0,45,0.00,,,0.00,Wunderground v.1.15,2013-08-22 19:14:00,
2013-08-22 14:19:00,89.7,66.8,30.02,SSW,209,0.0,1.0,47,0.00,,,0.00,Wunderground v.1.15,2013-08-22 19:19:00,
2013-08-22 14:24:00,89.7,67.4,30.02,SSW,209,0.0,1.0,48,0.00,,,0.00,Wunderground v.1.15,2013-08-22 19:24:00,
2013-08-22 14:29:00,89.7,64.9,30.02,SSW,209,0.0,0.0,44,0.00,,,0.00,Wunderground v.1.15,2013-08-22 19:29:00,
2013-08-22 14:34:00,89.9,67.6,30.02,SSW,209,0.0,0.0,48,0.00,,,0.00,Wunderground v.1.15,2013-08-22 19:34:00,
2013-08-22 14:39:00,89.3,66.4,30.02,SSW,209,0.0,0.0,47,0.00,,,0.00,Wunderground v.1.15,2013-08-22 19:39:00,
2013-08-22 14:44:00,89.3,65.2,30.02,SSW,209,0.0,1.0,45,0.00,,,0.00,Wunderground v.1.15,2013-08-22 19:44:00,
2013-08-22 14:49:00,89.5,67.2,30.02,SSW,209,0.0,0.0,48,0.00,,,0.00,Wunderground v.1.15,2013-08-22 19:49:00,
2013-08-22 14:54:00,89.7,66.8,30.02,SSW,209,0.0,1.0,47,0.00,,,0.00,Wunderground v.1.15,2013-08-22 19:54:00,
2013-08-22 14:59:00,89.0,66.8,30.02,SSW,209,0.0,0.0,48,0.00,,,0.00,Wunderground v.1.15,2013-08-22 19:59:00,
2013-08-22 15:04:00,89.0,65.5,30.01,West,275,0.0,2.0,46,0.00,,,0.00,Wunderground v.1.15,2013-08-22 20:04:00,
2013-08-22 15:09:00,89.0,67.4,30.01,NNW,331,0.0,3.0,49,0.00,,,0.00,Wunderground v.1.15,2013-08-22 20:09:00,
2013-08-22 15:14:00,88.4,69.1,30.01,NNW,331,1.0,3.0,53,0.00,,,0.00,Wunderground v.1.15,2013-08-22 20:14:00,
2013-08-22 15:19:00,88.2,70.0,30.01,NNW,331,0.0,3.0,55,0.00,,,0.00,Wunderground v.1.15,2013-08-22 20:19:00,
2013-08-22 15:24:00,88.0,69.3,30.01,NNW,332,0.0,4.0,54,0.00,,,0.00,Wunderground v.1.15,2013-08-22 20:24:00,
2013-08-22 15:29:00,87.6,69.4,30.01,NNW,332,0.0,1.0,55,0.00,,,0.00,Wunderground v.1.15,2013-08-22 20:29:00,
2013-08-22 15:34:00,87.2,68.5,30.01,NNW,332,0.0,4.0,54,0.00,,,0.00,Wunderground v.1.15,2013-08-22 20:34:00,
2013-08-22 15:39:00,87.0,68.3,30.01,NNW,332,0.0,1.0,54,0.00,,,0.00,Wunderground v.1.15,2013-08-22 20:39:00,
2013-08-22 15:44:00,87.0,68.9,30.01,NNW,332,0.0,1.0,55,0.00,,,0.00,Wunderground v.1.15,2013-08-22 20:44:00,
2013-08-22 15:49:00,87.0,68.3,30.01,NNW,332,0.0,0.0,54,0.00,,,0.00,Wunderground v.1.15,2013-08-22 20:49:00,
2013-08-22 15:54:00,87.0,67.8,30.01,NNW,332,0.0,1.0,53,0.00,,,0.00,Wunderground v.1.15,2013-08-22 20:54:00,
2013-08-22 15:59:00,87.0,68.9,30.01,NNW,332,0.0,0.0,55,0.00,,,0.00,Wunderground v.1.15,2013-08-22 20:59:00,
2013-08-22 16:04:00,86.7,70.2,30.00,NNW,332,0.0,0.0,58,0.00,,,0.00,Wunderground v.1.15,2013-08-22 21:04:00,
2013-08-22 16:10:00,86.5,68.9,30.00,NNW,332,0.0,0.0,56,0.00,,,0.00,Wunderground v.1.15,2013-08-22 21:10:00,
2013-08-22 16:15:00,86.5,71.0,30.00,NNW,332,0.0,0.0,60,0.00,,,0.00,Wunderground v.1.15,2013-08-22 21:15:00,
2013-08-22 16:20:00,86.5,72.4,30.00,NNW,332,0.0,0.0,63,0.00,,,0.00,Wunderground v.1.15,2013-08-22 21:20:00,
2013-08-22 16:25:00,86.5,70.0,30.00,NNW,332,0.0,0.0,58,0.00,,,0.00,Wunderground v.1.15,2013-08-22 21:25:00,
2013-08-22 16:30:00,86.3,69.3,30.00,NNW,332,0.0,0.0,57,0.00,,,0.00,Wunderground v.1.15,2013-08-22 21:30:00,
2013-08-22 16:35:00,86.3,67.2,30.00,NNW,332,0.0,0.0,53,0.00,,,0.00,Wunderground v.1.15,2013-08-22 21:35:00,
2013-08-22 16:40:00,86.3,69.3,30.00,NNW,332,0.0,0.0,57,0.00,,,0.00,Wunderground v.1.15,2013-08-22 21:40:00,
2013-08-22 16:45:00,86.5,70.5,30.00,NNW,332,0.0,1.0,59,0.00,,,0.00,Wunderground v.1.15,2013-08-22 21:45:00,
2013-08-22 16:50:00,86.3,69.3,30.00,NNW,332,0.0,0.0,57,0.00,,,0.00,Wunderground v.1.15,2013-08-22 21:50:00,
2013-08-22 16:55:00,85.9,69.9,30.00,NNW,332,0.0,0.0,59,0.00,,,0.00,Wunderground v.1.15,2013-08-22 21:55:00,
2013-08-22 17:00:00,85.9,71.8,30.00,NNW,332,0.0,0.0,63,0.00,,,0.00,Wunderground v.1.15,2013-08-22 22:00:00,
2013-08-22 17:05:00,85.9,73.2,30.00,NNW,332,0.0,0.0,66,0.00,,,0.00,Wunderground v.1.15,2013-08-22 22:05:00,
2013-08-22 17:10:00,85.7,72.1,30.00,NNW,332,0.0,1.0,64,0.00,,,0.00,Wunderground v.1.15,2013-08-22 22:10:00,
2013-08-22 17:15:00,85.5,72.4,30.00,NNW,332,0.0,1.0,65,0.00,,,0.00,Wunderground v.1.15,2013-08-22 22:15:00,
2013-08-22 17:20:00,85.1,69.7,30.00,NNW,332,0.0,0.0,60,0.00,,,0.00,Wunderground v.1.15,2013-08-22 22:20:00,
2013-08-22 17:25:00,85.1,70.1,30.00,NNW,332,0.0,0.0,61,0.00,,,0.00,Wunderground v.1.15,2013-08-22 22:25:00,
2013-08-22 17:30:00,85.1,69.7,30.00,NNW,332,1.0,1.0,60,0.00,,,0.00,Wunderground v.1.15,2013-08-22 22:30:00,
2013-08-22 17:35:00,84.9,69.0,30.00,NNW,332,0.0,3.0,59,0.00,,,0.00,Wunderground v.1.15,2013-08-22 22:35:00,
2013-08-22 17:40:00,84.7,69.8,30.00,NNW,332,0.0,0.0,61,0.00,,,0.00,Wunderground v.1.15,2013-08-22 22:40:00,
2013-08-22 17:45:00,84.7,69.8,30.00,NNW,332,0.0,0.0,61,0.00,,,0.00,Wunderground v.1.15,2013-08-22 22:45:00,
2013-08-22 17:50:00,84.7,69.3,30.00,NNW,332,0.0,0.0,60,0.00,,,0.00,Wunderground v.1.15,2013-08-22 22:50:00,
2013-08-22 17:56:00,84.7,69.8,30.00,NNW,332,0.0,1.0,61,0.00,,,0.00,Wunderground v.1.15,2013-08-22 22:56:00,
2013-08-22 18:01:00,84.7,70.2,30.00,NNW,332,0.0,0.0,62,0.00,,,0.00,Wunderground v.1.15,2013-08-22 23:01:00,
2013-08-22 18:06:00,84.7,71.6,30.00,NNW,332,0.0,1.0,65,0.00,,,0.00,Wunderground v.1.15,2013-08-22 23:06:00,
2013-08-22 18:11:00,84.5,70.0,30.00,NNW,332,0.0,0.0,62,0.00,,,0.00,Wunderground v.1.15,2013-08-22 23:11:00,
2013-08-22 18:16:00,84.3,69.9,30.00,NNW,332,0.0,0.0,62,0.00,,,0.00,Wunderground v.1.15,2013-08-22 23:16:00,
2013-08-22 18:21:00,84.0,71.0,29.99,NNW,332,0.0,0.0,65,0.00,,,0.00,Wunderground v.1.15,2013-08-22 23:21:00,
2013-08-22 18:26:00,83.8,71.2,29.99,NNW,332,0.0,0.0,66,0.00,,,0.00,Wunderground v.1.15,2013-08-22 23:26:00,
2013-08-22 18:31:00,83.4,70.4,29.99,NNW,332,0.0,0.0,65,0.00,,,0.00,Wunderground v.1.15,2013-08-22 23:31:00,
2013-08-22 18:36:00,83.2,71.1,29.99,NNW,332,0.0,0.0,67,0.00,,,0.00,Wunderground v.1.15,2013-08-22 23:36:00,
2013-08-22 18:41:00,82.8,70.7,29.99,NNW,332,0.0,0.0,67,0.00,,,0.00,Wunderground v.1.15,2013-08-22 23:41:00,
2013-08-22 18:46:00,82.4,70.3,29.99,NNW,332,0.0,0.0,67,0.00,,,0.00,Wunderground v.1.15,2013-08-22 23:46:00,
2013-08-22 18:51:00,82.0,70.4,29.99,NNW,332,0.0,0.0,68,0.00,,,0.00,Wunderground v.1.15,2013-08-22 23:51:00,
2013-08-22 18:56:00,81.6,70.0,29.99,NNW,332,0.0,0.0,68,0.00,,,0.00,Wunderground v.1.15,2013-08-22 23:56:00,
2013-08-22 19:02:00,81.6,71.3,29.99,NNW,332,0.0,0.0,71,0.00,,,0.00,Wunderground v.1.15,2013-08-23 00:02:00,
2013-08-22 19:07:00,81.2,70.1,29.99,NNW,332,0.0,0.0,69,0.00,,,0.00,Wunderground v.1.15,2013-08-23 00:07:00,
2013-08-22 19:12:00,80.9,70.2,29.99,NNW,332,0.0,0.0,70,0.00,,,0.00,Wunderground v.1.15,2013-08-23 00:12:00,
2013-08-22 19:17:00,80.5,70.2,29.99,NNW,332,0.0,0.0,71,0.00,,,0.00,Wunderground v.1.15,2013-08-23 00:17:00,
2013-08-22 19:22:00,80.3,70.4,29.98,NNW,332,0.0,0.0,72,0.00,,,0.00,Wunderground v.1.15,2013-08-23 00:22:00,
2013-08-22 19:28:00,79.9,70.1,29.98,NNW,332,0.0,0.0,72,0.00,,,0.00,Wunderground v.1.15,2013-08-23 00:28:00,
2013-08-22 19:33:00,79.6,69.8,29.98,NNW,332,0.0,0.0,72,0.00,,,0.00,Wunderground v.1.15,2013-08-23 00:33:00,
2013-08-22 19:38:00,79.2,70.2,29.98,NNW,332,0.0,0.0,74,0.00,,,0.00,Wunderground v.1.15,2013-08-23 00:38:00,
2013-08-22 19:44:00,78.5,69.9,29.98,NNW,332,0.0,0.0,75,0.00,,,0.00,Wunderground v.1.15,2013-08-23 00:44:00,
2013-08-22 19:49:00,77.9,69.7,29.99,NNW,332,0.0,0.0,76,0.00,,,0.00,Wunderground v.1.15,2013-08-23 00:49:00,
2013-08-22 19:54:00,77.4,70.0,29.99,NNW,332,0.0,0.0,78,0.00,,,0.00,Wunderground v.1.15,2013-08-23 00:54:00,
2013-08-22 19:59:00,77.0,69.6,29.99,NNW,332,0.0,0.0,78,0.00,,,0.00,Wunderground v.1.15,2013-08-23 00:59:00,
2013-08-22 20:04:00,76.7,69.7,29.99,NNW,332,0.0,0.0,79,0.00,,,0.00,Wunderground v.1.15,2013-08-23 01:04:00,
2013-08-22 20:09:00,76.3,69.3,29.99,NNW,332,0.0,0.0,79,0.00,,,0.00,Wunderground v.1.15,2013-08-23 01:09:00,
2013-08-22 20:14:00,76.0,69.4,29.99,NNW,332,0.0,0.0,80,0.00,,,0.00,Wunderground v.1.15,2013-08-23 01:14:00,
2013-08-22 20:19:00,75.8,69.6,29.99,NNW,332,0.0,0.0,81,0.00,,,0.00,Wunderground v.1.15,2013-08-23 01:19:00,
2013-08-22 20:24:00,75.4,69.2,29.99,NNW,332,0.0,0.0,81,0.00,,,0.00,Wunderground v.1.15,2013-08-23 01:24:00,
2013-08-22 20:29:00,75.1,69.2,29.99,NNW,332,0.0,0.0,82,0.00,,,0.00,Wunderground v.1.15,2013-08-23 01:29:00,
2013-08-22 20:34:00,74.6,69.1,30.00,NNW,332,0.0,0.0,83,0.00,,,0.00,Wunderground v.1.15,2013-08-23 01:34:00,
2013-08-22 20:39:00,74.4,69.2,30.00,NNW,332,0.0,0.0,84,0.00,,,0.00,Wunderground v.1.15,2013-08-23 01:39:00,
2013-08-22 20:44:00,74.0,68.9,30.00,NNW,332,0.0,0.0,84,0.00,,,0.00,Wunderground v.1.15,2013-08-23 01:44:00,
2013-08-22 20:49:00,73.7,68.9,30.00,NNW,332,0.0,0.0,85,0.00,,,0.00,Wunderground v.1.15,2013-08-23 01:49:00,
2013-08-22 20:54:00,73.5,68.7,30.00,NNW,332,0.0,0.0,85,0.00,,,0.00,Wunderground v.1.15,2013-08-23 01:54:00,
2013-08-22 20:59:00,73.3,68.5,30.00,NNW,332,0.0,0.0,85,0.00,,,0.00,Wunderground v.1.15,2013-08-23 01:59:00,
2013-08-22 21:04:00,73.0,68.2,30.01,NNW,332,0.0,0.0,85,0.00,,,0.00,Wunderground v.1.15,2013-08-23 02:04:00,
2013-08-22 21:09:00,72.8,68.4,30.01,NNW,332,0.0,0.0,86,0.00,,,0.00,Wunderground v.1.15,2013-08-23 02:09:00,
2013-08-22 21:14:00,72.7,68.6,30.01,NNW,332,0.0,0.0,87,0.00,,,0.00,Wunderground v.1.15,2013-08-23 02:14:00,
2013-08-22 21:19:00,72.7,68.9,30.00,NNW,332,0.0,0.0,88,0.00,,,0.00,Wunderground v.1.15,2013-08-23 02:19:00,
2013-08-22 21:24:00,72.5,68.7,30.00,NNW,332,0.0,0.0,88,0.00,,,0.00,Wunderground v.1.15,2013-08-23 02:24:00,
2013-08-22 21:29:00,72.3,68.5,30.00,NNW,332,0.0,0.0,88,0.00,,,0.00,Wunderground v.1.15,2013-08-23 02:29:00,
2013-08-22 21:34:00,72.3,68.9,30.01,NNW,332,0.0,0.0,89,0.00,,,0.00,Wunderground v.1.15,2013-08-23 02:34:00,
2013-08-22 21:40:00,72.1,68.7,30.01,NNW,332,0.0,0.0,89,0.00,,,0.00,Wunderground v.1.15,2013-08-23 02:40:00,
2013-08-22 21:45:00,72.0,68.6,30.01,NNW,332,0.0,0.0,89,0.00,,,0.00,Wunderground v.1.15,2013-08-23 02:45:00,
2013-08-22 21:50:00,71.8,68.4,30.01,NNW,332,0.0,0.0,89,0.00,,,0.00,Wunderground v.1.15,2013-08-23 02:50:00,
2013-08-22 21:55:00,71.6,68.2,30.01,NNW,332,0.0,0.0,89,0.00,,,0.00,Wunderground v.1.15,2013-08-23 02:55:00,
2013-08-22 22:00:00,71.5,68.1,30.01,NNW,332,0.0,0.0,89,0.00,,,0.00,Wunderground v.1.15,2013-08-23 03:00:00,
2013-08-22 22:03:00,69.9,67.2,30.01,NNW,332,0.0,0.0,91,0.00,,,0.00,Wunderground v.1.15,2013-08-23 03:03:00,
2013-08-22 22:04:00,69.9,67.5,30.01,NNW,332,0.0,0.0,92,0.00,,,0.00,Wunderground v.1.15,2013-08-23 03:04:00,
2013-08-22 22:05:00,71.1,67.7,30.01,NNW,332,0.0,0.0,89,0.00,,,0.00,Wunderground v.1.15,2013-08-23 03:05:00,
2013-08-22 22:06:00,69.9,67.5,30.01,NNW,332,0.0,0.0,92,0.00,,,0.00,Wunderground v.1.15,2013-08-23 03:06:00,
2013-08-22 22:07:00,69.9,67.5,30.02,NNW,332,0.0,0.0,92,0.00,,,0.00,Wunderground v.1.15,2013-08-23 03:07:00,
2013-08-22 22:08:00,69.9,67.5,30.02,NNW,332,0.0,0.0,92,0.00,,,0.00,Wunderground v.1.15,2013-08-23 03:08:00,
2013-08-22 22:09:00,69.9,67.5,30.02,NNW,332,0.0,0.0,92,0.00,,,0.00,Wunderground v.1.15,2013-08-23 03:09:00,
2013-08-22 22:10:00,70.9,67.5,30.01,NNW,332,0.0,0.0,89,0.00,,,0.00,Wunderground v.1.15,2013-08-23 03:10:00,
2013-08-22 22:11:00,69.9,67.5,30.02,NNW,332,0.0,0.0,92,0.00,,,0.00,Wunderground v.1.15,2013-08-23 03:11:00,
2013-08-22 22:12:00,69.8,67.4,30.02,NNW,332,0.0,0.0,92,0.00,,,0.00,Wunderground v.1.15,2013-08-23 03:12:00,
2013-08-22 22:13:00,69.8,67.4,30.02,NNW,332,0.0,0.0,92,0.00,,,0.00,Wunderground v.1.15,2013-08-23 03:13:00,
2013-08-22 22:14:00,69.8,67.4,30.02,NNW,332,0.0,0.0,92,0.00,,,0.00,Wunderground v.1.15,2013-08-23 03:14:00,
2013-08-22 22:15:00,70.9,67.8,30.01,NNW,332,0.0,0.0,90,0.00,,,0.00,Wunderground v.1.15,2013-08-23 03:15:00,
2013-08-22 22:20:00,70.8,67.7,30.01,NNW,332,0.0,0.0,90,0.00,,,0.00,Wunderground v.1.15,2013-08-23 03:20:00,
2013-08-22 22:25:00,70.6,67.5,30.01,NNW,332,0.0,0.0,90,0.00,,,0.00,Wunderground v.1.15,2013-08-23 03:25:00,
2013-08-22 22:30:00,70.4,67.3,30.01,NNW,332,0.0,0.0,90,0.00,,,0.00,Wunderground v.1.15,2013-08-23 03:30:00,
2013-08-22 22:35:00,70.4,67.3,30.01,NNW,332,0.0,0.0,90,0.00,,,0.00,Wunderground v.1.15,2013-08-23 03:35:00,
2013-08-22 22:40:00,70.3,67.2,30.01,NNW,332,0.0,0.0,90,0.00,,,0.00,Wunderground v.1.15,2013-08-23 03:40:00,
2013-08-22 22:45:00,70.3,67.5,30.01,NNW,332,0.0,0.0,91,0.00,,,0.00,Wunderground v.1.15,2013-08-23 03:45:00,
2013-08-22 22:50:00,70.1,67.3,30.01,NNW,332,0.0,0.0,91,0.00,,,0.00,Wunderground v.1.15,2013-08-23 03:50:00,
2013-08-22 22:55:00,70.1,67.3,30.01,NNW,332,0.0,0.0,91,0.00,,,0.00,Wunderground v.1.15,2013-08-23 03:55:00,
2013-08-22 23:07:00,69.9,67.5,30.02,NNW,332,0.0,0.0,92,0.00,,,0.00,Wunderground v.1.15,2013-08-23 04:07:00,
2013-08-22 23:13:00,69.8,67.4,30.02,NNW,332,0.0,0.0,92,0.00,,,0.00,Wunderground v.1.15,2013-08-23 04:13:00,
2013-08-22 23:18:00,69.6,67.2,30.02,NNW,332,0.0,0.0,92,0.00,,,0.00,Wunderground v.1.15,2013-08-23 04:18:00,
2013-08-22 23:23:00,69.6,67.2,30.01,NNW,332,0.0,0.0,92,0.00,,,0.00,Wunderground v.1.15,2013-08-23 04:23:00,
2013-08-22 23:28:00,69.6,67.2,30.01,NNW,332,0.0,0.0,92,0.00,,,0.00,Wunderground v.1.15,2013-08-23 04:28:00,
2013-08-22 23:33:00,69.6,67.2,30.01,NNW,332,0.0,0.0,92,0.00,,,0.00,Wunderground v.1.15,2013-08-23 04:33:00,
2013-08-22 23:38:00,69.6,67.5,30.01,NNW,332,0.0,0.0,93,0.00,,,0.00,Wunderground v.1.15,2013-08-23 04:38:00,
2013-08-22 23:43:00,69.6,67.5,30.01,NNW,332,0.0,0.0,93,0.00,,,0.00,Wunderground v.1.15,2013-08-23 04:43:00,
2013-08-22 23:48:00,69.4,67.3,30.01,NNW,332,0.0,0.0,93,0.00,,,0.00,Wunderground v.1.15,2013-08-23 04:48:00,
2013-08-22 23:53:00,69.3,67.2,30.01,NNW,332,0.0,0.0,93,0.00,,,0.00,Wunderground v.1.15,2013-08-23 04:53:00,
2013-08-22 23:59:00,69.1,67.0,30.01,NNW,332,0.0,0.0,93,0.00,,,0.00,Wunderground v.1.15,2013-08-23 04:59:00,